Anchorage/Lake Hood Seaplane Base, Alaska
Current Conditions -  °F | °C
As of 12:53 PM on Friday 28 Nov 2014 (Local Time) from PALH Reporting Station
Overcast Overcast  
Wind Chill: 17°   Ceiling: 5500
Heat Index: 23°   Visibility: 10mi
Dew Point: 16°   Wind: 5mph
Humidity: 74%   Direction: 20°NNE
Pressure: 30.2"   Gusts: NA
Location:  61.18°N, 149.97°W
Report Text: PALH 282153Z 02004KT 10SM OVC055 M05/M09 A3020 RMK AO2 SLP229 T10501089
Loading
Personal Weather Stations






























Interactive Weather Map New forecast layout! Learn more

10-Day Weather Forecast

Advertisements
Track Severe Weather on mobile